Time;durP1;ratioP1;P1;durP2;ratioP2;P2;SDS_P1;SDS_P2;PMS_P1;PMS_P2;Temp;Humidity;BMP_temperature;BMP_pressure;BME280_temperature;BME280_humidity;BME280_pressure;Samples;Min_cycle;Max_cycle;Signal;HPM_P1;HPM_P2
2023/08/06 00:01:57;;;;;;;14.90;8.80;;;14.90;99.90;;;;;;5047807;28;20226;-59
2023/08/06 00:04:25;;;;;;;16.07;8.63;;;14.90;99.90;;;;;;5047604;28;20232;-59
2023/08/06 00:06:53;;;;;;;14.63;8.80;;;15.00;99.90;;;;;;5046880;28;20204;-58
2023/08/06 00:09:23;;;;;;;22.00;8.70;;;15.00;99.90;;;;;;5051106;28;20210;-59
2023/08/06 00:11:51;;;;;;;18.27;8.57;;;15.00;99.90;;;;;;5049688;28;20212;-59
2023/08/06 00:14:20;;;;;;;20.10;10.10;;;15.00;99.90;;;;;;5049677;28;20628;-59
2023/08/06 00:16:49;;;;;;;18.33;9.60;;;15.00;99.90;;;;;;5050227;28;20218;-59
2023/08/06 00:19:18;;;;;;;18.33;9.67;;;15.00;99.90;;;;;;5049751;28;20226;-59
2023/08/06 00:21:46;;;;;;;21.00;9.40;;;14.90;99.90;;;;;;5051019;28;20565;-59
2023/08/06 00:24:14;;;;;;;19.67;9.37;;;14.90;99.90;;;;;;5043276;28;20257;-59
2023/08/06 00:26:44;;;;;;;21.87;10.03;;;14.90;99.90;;;;;;5027229;28;20237;-58
2023/08/06 00:29:12;;;;;;;21.43;10.27;;;14.90;99.90;;;;;;5050894;28;20617;-59
2023/08/06 00:31:41;;;;;;;20.73;10.73;;;15.00;99.90;;;;;;5031146;28;20222;-59
2023/08/06 00:34:09;;;;;;;20.63;9.80;;;14.90;99.90;;;;;;5049639;28;20213;-59
2023/08/06 00:36:37;;;;;;;24.77;11.60;;;14.90;99.90;;;;;;5042882;28;20210;-59
2023/08/06 00:39:06;;;;;;;25.47;12.00;;;14.90;99.90;;;;;;5051230;28;20687;-59
2023/08/06 00:41:35;;;;;;;27.20;13.20;;;14.80;99.90;;;;;;5051454;28;20224;-59
2023/08/06 00:44:05;;;;;;;30.20;13.13;;;14.80;99.90;;;;;;5040754;28;20309;-58
2023/08/06 00:46:34;;;;;;;28.10;13.27;;;14.80;99.90;;;;;;5049879;28;20218;-59
2023/08/06 00:49:03;;;;;;;29.67;14.00;;;14.70;99.90;;;;;;5046361;28;20193;-59
2023/08/06 00:51:32;;;;;;;28.97;14.33;;;14.80;99.90;;;;;;5044670;28;20220;-59
2023/08/06 00:54:01;;;;;;;27.63;13.63;;;14.80;99.90;;;;;;5023958;28;20218;-59
2023/08/06 00:56:30;;;;;;;28.97;14.03;;;14.90;99.90;;;;;;5052208;28;20217;-59
2023/08/06 00:58:58;;;;;;;27.97;14.57;;;14.90;99.90;;;;;;5047922;28;20301;-59
2023/08/06 01:01:28;;;;;;;26.97;12.80;;;15.00;99.90;;;;;;5047654;28;20230;-58
2023/08/06 01:03:57;;;;;;;24.77;12.40;;;15.00;99.90;;;;;;5046077;28;20191;-58
2023/08/06 01:06:36;;;;;;;29.77;11.77;;;15.00;99.90;;;;;;5047664;28;20630;-59
2023/08/06 01:09:12;;;;;;;18.73;9.60;;;14.90;99.90;;;;;;5048856;28;20217;-59
2023/08/06 01:11:49;;;;;;;18.33;8.87;;;14.90;99.90;;;;;;5045828;28;20210;-58
2023/08/06 01:14:24;;;;;;;16.97;7.63;;;14.90;99.90;;;;;;5054618;28;20688;-59
2023/08/06 01:16:55;;;;;;;13.63;6.50;;;14.90;99.90;;;;;;5056231;28;20226;-59
2023/08/06 01:19:24;;;;;;;18.13;6.57;;;14.80;99.90;;;;;;5052063;28;20216;-59
2023/08/06 01:21:53;;;;;;;11.43;4.80;;;14.80;99.90;;;;;;5047157;28;20207;-59
2023/08/06 01:24:22;;;;;;;10.73;4.37;;;14.80;99.90;;;;;;5048845;28;20240;-59
2023/08/06 01:26:59;;;;;;;12.47;3.60;;;14.80;99.90;;;;;;5048725;28;20676;-59
2023/08/06 01:29:35;;;;;;;7.33;3.67;;;14.70;99.90;;;;;;5050752;28;20600;-59
2023/08/06 01:32:06;;;;;;;12.40;3.50;;;14.70;99.90;;;;;;5054662;28;20961;-59
2023/08/06 01:34:35;;;;;;;8.33;2.90;;;14.70;99.90;;;;;;5047742;28;20753;-59
2023/08/06 01:37:06;;;;;;;9.47;3.57;;;14.70;99.90;;;;;;5031326;28;20209;-59
2023/08/06 01:39:35;;;;;;;11.73;3.50;;;14.70;99.90;;;;;;5050358;28;20198;-60
2023/08/06 01:42:03;;;;;;;12.13;3.33;;;14.70;99.90;;;;;;5045277;28;20225;-59
2023/08/06 01:44:32;;;;;;;12.33;2.93;;;14.70;99.90;;;;;;5049899;28;20271;-60
2023/08/06 01:47:00;;;;;;;8.63;3.23;;;14.70;99.90;;;;;;5050664;28;20341;-59
2023/08/06 01:49:29;;;;;;;15.03;3.53;;;14.70;99.90;;;;;;5031694;28;20224;-59
2023/08/06 01:51:57;;;;;;;12.97;3.10;;;14.70;99.90;;;;;;5048506;28;20226;-59
2023/08/06 01:54:27;;;;;;;11.43;3.13;;;14.70;99.90;;;;;;5035287;28;20191;-59
2023/08/06 01:56:55;;;;;;;8.97;3.23;;;14.70;99.90;;;;;;5044844;28;20217;-60
2023/08/06 01:59:24;;;;;;;9.63;3.37;;;14.70;99.90;;;;;;5031898;28;20898;-59
2023/08/06 02:01:52;;;;;;;7.87;2.90;;;14.70;99.90;;;;;;5020905;28;20233;-59
2023/08/06 02:04:21;;;;;;;7.77;3.50;;;14.70;99.90;;;;;;5042656;28;20230;-59
2023/08/06 02:06:49;;;;;;;13.53;4.27;;;14.70;99.90;;;;;;5038131;28;20303;-59
2023/08/06 02:09:17;;;;;;;17.87;4.70;;;14.70;99.90;;;;;;5046784;28;20593;-59
2023/08/06 02:11:47;;;;;;;12.17;4.90;;;14.80;99.90;;;;;;5037913;28;20246;-59
2023/08/06 02:14:17;;;;;;;15.00;6.00;;;14.80;99.90;;;;;;5027209;28;20222;-59
2023/08/06 02:16:45;;;;;;;15.63;7.90;;;14.80;99.90;;;;;;5042896;28;20232;-59
2023/08/06 02:19:21;;;;;;;21.60;10.63;;;14.80;99.90;;;;;;5029548;28;20224;-59
2023/08/06 02:21:49;;;;;;;23.60;11.20;;;14.80;99.90;;;;;;5037897;28;20201;-59
2023/08/06 02:24:18;;;;;;;31.20;13.87;;;14.90;99.90;;;;;;5031018;28;20222;-59
2023/08/06 02:26:49;;;;;;;35.13;15.10;;;14.90;99.90;;;;;;5043611;28;20225;-59
2023/08/06 02:29:18;;;;;;;37.83;16.27;;;14.90;99.90;;;;;;5045309;28;20626;-59
2023/08/06 02:31:46;;;;;;;37.27;16.00;;;15.00;99.90;;;;;;5044106;28;20216;-60
2023/08/06 02:34:14;;;;;;;39.20;16.33;;;15.00;99.90;;;;;;5038790;28;20227;-59
2023/08/06 02:36:43;;;;;;;39.13;14.20;;;15.00;99.90;;;;;;5037861;28;20598;-60
2023/08/06 02:39:11;;;;;;;30.87;13.53;;;15.00;99.90;;;;;;5021780;28;20223;-60
2023/08/06 02:41:40;;;;;;;16.97;8.67;;;15.00;99.90;;;;;;5020968;28;20223;-59
2023/08/06 02:44:09;;;;;;;19.03;7.27;;;15.00;99.90;;;;;;5042319;28;20606;-59
2023/08/06 02:46:38;;;;;;;22.43;7.77;;;15.00;99.90;;;;;;5043658;28;20664;-59
2023/08/06 02:49:07;;;;;;;12.37;7.07;;;14.90;99.90;;;;;;5036936;28;20200;-59
2023/08/06 02:51:35;;;;;;;8.33;5.57;;;14.90;99.90;;;;;;5042339;28;20214;-59
2023/08/06 02:54:03;;;;;;;7.60;4.70;;;14.90;99.90;;;;;;5026437;28;20224;-59
2023/08/06 02:56:31;;;;;;;4.47;4.17;;;14.90;99.90;;;;;;5031441;28;20618;-59
2023/08/06 02:59:00;;;;;;;7.67;4.13;;;14.80;99.90;;;;;;5020781;28;20234;-59
2023/08/06 03:01:29;;;;;;;7.43;3.57;;;14.80;99.90;;;;;;5028099;28;20236;-59
2023/08/06 03:03:58;;;;;;;6.13;2.97;;;14.80;99.90;;;;;;5025634;28;20230;-58
2023/08/06 03:06:26;;;;;;;5.77;3.20;;;14.80;99.90;;;;;;5028904;28;20193;-58
2023/08/06 03:08:55;;;;;;;4.27;2.80;;;14.70;99.90;;;;;;5034369;28;20215;-59
2023/08/06 03:11:24;;;;;;;7.97;3.00;;;14.80;99.90;;;;;;5027927;28;20576;-58
2023/08/06 03:13:52;;;;;;;8.50;3.60;;;14.70;99.90;;;;;;5024420;28;20762;-59
2023/08/06 03:16:20;;;;;;;5.37;3.80;;;14.70;99.90;;;;;;5027978;28;20238;-59
2023/08/06 03:18:50;;;;;;;5.87;4.00;;;14.60;99.90;;;;;;5031201;28;20190;-59
2023/08/06 03:21:19;;;;;;;8.00;4.10;;;14.50;99.90;;;;;;5029437;28;20291;-59
2023/08/06 03:23:48;;;;;;;9.90;4.67;;;14.40;99.90;;;;;;5032401;28;20226;-59
2023/08/06 03:26:16;;;;;;;8.73;4.37;;;14.40;99.90;;;;;;5030296;28;20213;-59
2023/08/06 03:28:45;;;;;;;5.83;4.50;;;14.30;99.90;;;;;;5030747;28;20221;-59
2023/08/06 03:31:13;;;;;;;10.10;5.00;;;14.20;99.90;;;;;;5029745;28;20233;-59
2023/08/06 03:33:41;;;;;;;15.93;5.03;;;14.20;99.90;;;;;;5033551;28;20250;-59
2023/08/06 03:36:12;;;;;;;8.80;4.73;;;14.20;99.90;;;;;;5022628;28;20566;-59
2023/08/06 03:38:40;;;;;;;9.53;5.37;;;14.20;99.90;;;;;;5012257;28;20221;-59
2023/08/06 03:41:08;;;;;;;11.23;5.30;;;14.10;99.90;;;;;;5031365;28;20242;-59
2023/08/06 03:43:37;;;;;;;12.07;4.93;;;14.20;99.90;;;;;;5027769;28;20592;-59
2023/08/06 03:46:06;;;;;;;8.03;5.47;;;14.20;99.90;;;;;;5028514;28;20217;-59
2023/08/06 03:48:34;;;;;;;14.90;5.43;;;14.20;99.90;;;;;;5032261;28;20215;-59
2023/08/06 03:51:03;;;;;;;10.33;5.60;;;14.20;99.90;;;;;;5021997;28;20218;-59
2023/08/06 03:53:33;;;;;;;13.37;5.43;;;14.20;99.90;;;;;;5049883;28;20300;-59
2023/08/06 03:56:01;;;;;;;10.63;5.77;;;14.10;99.90;;;;;;5023050;28;20233;-59
2023/08/06 03:58:31;;;;;;;13.50;6.30;;;14.10;99.90;;;;;;5044122;28;20629;-59
2023/08/06 04:01:00;;;;;;;11.40;5.93;;;14.00;99.90;;;;;;5046890;28;20185;-59
2023/08/06 04:03:29;;;;;;;13.63;6.23;;;14.00;99.90;;;;;;5049869;28;20603;-59
2023/08/06 04:05:57;;;;;;;9.17;6.37;;;14.00;99.90;;;;;;5046333;28;20721;-59
2023/08/06 04:08:25;;;;;;;13.27;6.80;;;13.90;99.90;;;;;;5042995;28;20315;-59
2023/08/06 04:10:55;;;;;;;16.53;7.50;;;13.90;99.90;;;;;;5048926;28;20213;-59
2023/08/06 04:13:24;;;;;;;15.80;9.07;;;13.90;99.90;;;;;;5048654;28;20227;-59
2023/08/06 04:15:53;;;;;;;18.17;9.57;;;13.90;99.90;;;;;;5048402;28;20208;-59
2023/08/06 04:18:21;;;;;;;18.90;10.30;;;13.90;99.90;;;;;;5045414;28;20672;-59
2023/08/06 04:20:52;;;;;;;17.60;9.10;;;13.90;99.90;;;;;;5049820;28;20217;-59
2023/08/06 04:23:20;;;;;;;26.43;10.63;;;13.90;99.90;;;;;;5044336;28;20224;-59
2023/08/06 04:25:48;;;;;;;26.40;12.97;;;13.90;99.90;;;;;;5046928;28;20235;-59
2023/08/06 04:28:18;;;;;;;26.20;12.90;;;13.90;99.90;;;;;;5021892;28;20220;-59
2023/08/06 04:30:46;;;;;;;28.10;12.50;;;13.90;99.90;;;;;;5043071;28;20607;-59
2023/08/06 04:33:15;;;;;;;20.77;9.50;;;14.00;99.90;;;;;;5050809;28;20643;-59
2023/08/06 04:35:43;;;;;;;15.63;8.10;;;14.00;99.90;;;;;;5049618;28;20220;-59
2023/08/06 04:38:11;;;;;;;14.40;6.50;;;14.00;99.90;;;;;;5044508;28;20220;-59
2023/08/06 04:40:40;;;;;;;12.57;6.03;;;14.00;99.90;;;;;;5049748;28;20250;-59
2023/08/06 04:43:08;;;;;;;14.73;6.30;;;14.00;99.90;;;;;;5049370;28;20209;-59
2023/08/06 04:45:37;;;;;;;14.10;5.67;;;14.10;99.90;;;;;;5049571;28;20196;-59
2023/08/06 04:48:06;;;;;;;14.60;5.30;;;14.10;99.90;;;;;;5046073;28;20221;-59
2023/08/06 04:50:34;;;;;;;15.63;5.40;;;14.10;99.90;;;;;;5046291;28;20701;-59
2023/08/06 04:53:03;;;;;;;15.60;5.57;;;14.10;99.90;;;;;;5048882;28;20627;-59
2023/08/06 04:55:31;;;;;;;16.13;5.47;;;14.10;99.90;;;;;;5037787;28;20313;-59
2023/08/06 04:57:59;;;;;;;13.53;5.90;;;14.10;99.90;;;;;;5045852;28;20205;-59
2023/08/06 05:00:27;;;;;;;16.77;5.53;;;14.10;99.90;;;;;;5044931;28;20577;-59
2023/08/06 05:02:57;;;;;;;12.43;5.40;;;14.10;99.90;;;;;;5048179;28;20308;-59
2023/08/06 05:05:26;;;;;;;13.30;4.97;;;14.10;99.90;;;;;;5047131;28;20290;-59
2023/08/06 05:07:56;;;;;;;13.00;4.77;;;14.10;99.90;;;;;;5039405;28;20239;-59
2023/08/06 05:10:25;;;;;;;14.37;4.67;;;14.00;99.90;;;;;;5043221;28;20225;-59
2023/08/06 05:12:54;;;;;;;9.13;4.40;;;14.00;99.90;;;;;;5043156;28;20194;-59
2023/08/06 05:15:26;;;;;;;13.27;4.53;;;14.00;99.90;;;;;;5023053;28;20281;-59
2023/08/06 05:17:54;;;;;;;13.50;4.20;;;14.00;99.90;;;;;;5047680;28;20217;-59
2023/08/06 05:20:24;;;;;;;11.50;4.53;;;13.90;99.90;;;;;;5046200;28;20703;-59
2023/08/06 05:22:52;;;;;;;20.03;4.90;;;13.90;99.90;;;;;;5044764;28;20234;-59
2023/08/06 05:25:21;;;;;;;9.97;5.10;;;13.90;99.90;;;;;;5049545;28;20224;-58
2023/08/06 05:27:49;;;;;;;8.53;4.33;;;13.90;99.90;;;;;;5049042;28;20191;-58
2023/08/06 05:30:18;;;;;;;14.87;4.37;;;13.90;99.90;;;;;;5044206;28;20221;-59
2023/08/06 05:32:46;;;;;;;8.53;4.00;;;13.90;99.90;;;;;;5048494;28;20592;-59
2023/08/06 05:35:14;;;;;;;15.63;5.23;;;13.90;99.90;;;;;;5048474;28;20245;-59
2023/08/06 05:37:44;;;;;;;8.53;4.70;;;13.90;99.90;;;;;;5051926;28;20235;-59
2023/08/06 05:40:13;;;;;;;11.07;4.53;;;13.90;99.90;;;;;;5046475;28;20231;-59
2023/08/06 05:42:41;;;;;;;13.97;4.97;;;13.90;99.90;;;;;;5049153;28;20190;-59
2023/08/06 05:45:10;;;;;;;9.90;4.73;;;13.80;99.90;;;;;;5048969;28;20222;-59
2023/08/06 05:47:39;;;;;;;11.33;4.40;;;13.80;99.90;;;;;;5044316;28;20248;-59
2023/08/06 05:50:08;;;;;;;18.63;4.87;;;13.80;99.90;;;;;;5048082;28;20224;-59
2023/08/06 05:52:37;;;;;;;12.13;4.70;;;13.80;99.90;;;;;;5036572;28;20285;-59
2023/08/06 05:55:07;;;;;;;11.80;4.37;;;13.80;99.90;;;;;;5022805;28;20190;-58
2023/08/06 05:57:36;;;;;;;14.20;4.97;;;13.80;99.90;;;;;;5029137;28;20205;-59
2023/08/06 06:00:06;;;;;;;14.67;4.80;;;13.80;99.90;;;;;;5029465;28;20218;-59
2023/08/06 06:02:34;;;;;;;11.13;5.60;;;13.80;99.90;;;;;;5037682;28;20248;-59
2023/08/06 06:05:02;;;;;;;11.00;4.97;;;13.90;99.90;;;;;;5027000;28;20237;-59
2023/08/06 06:07:31;;;;;;;14.00;4.87;;;13.90;99.90;;;;;;5025109;28;20315;-59
2023/08/06 06:09:59;;;;;;;13.87;4.80;;;13.90;99.90;;;;;;5014625;28;20602;-58
2023/08/06 06:12:29;;;;;;;6.67;4.30;;;13.90;99.90;;;;;;5027998;28;20214;-59
2023/08/06 06:14:57;;;;;;;11.57;4.20;;;13.90;99.90;;;;;;5026096;28;20217;-59
2023/08/06 06:17:46;;;;;;;10.77;4.30;;;13.90;99.90;;;;;;5026764;28;20589;-59
2023/08/06 06:20:15;;;;;;;10.77;4.33;;;13.90;99.90;;;;;;5029321;28;20218;-59
2023/08/06 06:22:43;;;;;;;7.97;4.20;;;13.90;99.90;;;;;;5030652;28;20232;-59
2023/08/06 06:25:11;;;;;;;12.07;3.93;;;13.90;99.90;;;;;;5009218;28;20681;-59
2023/08/06 06:27:41;;;;;;;11.00;4.00;;;13.90;99.90;;;;;;5030423;28;20197;-59
2023/08/06 06:30:11;;;;;;;5.27;3.37;;;13.90;99.90;;;;;;5021390;28;20252;-59
2023/08/06 06:32:41;;;;;;;9.80;4.47;;;13.90;99.90;;;;;;5032892;28;20224;-59
2023/08/06 06:35:10;;;;;;;11.80;4.00;;;13.90;99.90;;;;;;5031704;28;20228;-60
2023/08/06 06:37:38;;;;;;;6.80;3.37;;;13.90;99.90;;;;;;5031261;28;20245;-59
2023/08/06 06:40:07;;;;;;;10.43;3.30;;;13.90;99.90;;;;;;5031341;28;20207;-59
2023/08/06 06:42:36;;;;;;;11.00;3.73;;;13.90;99.90;;;;;;5026737;28;20202;-59
2023/08/06 06:45:06;;;;;;;14.00;3.67;;;13.90;99.90;;;;;;5024327;28;20244;-59
2023/08/06 06:47:35;;;;;;;11.40;3.00;;;14.00;99.90;;;;;;5032503;28;20218;-59
2023/08/06 06:50:04;;;;;;;6.10;2.10;;;14.00;99.90;;;;;;5031329;28;20299;-59
2023/08/06 06:52:32;;;;;;;9.17;2.07;;;14.10;99.90;;;;;;5030001;28;20850;-59
2023/08/06 06:55:01;;;;;;;11.60;2.53;;;14.10;99.90;;;;;;5051285;28;20197;-59
2023/08/06 06:57:29;;;;;;;8.97;2.10;;;14.00;99.90;;;;;;5049251;28;20532;-59
2023/08/06 06:59:57;;;;;;;5.07;1.87;;;14.00;99.90;;;;;;5055158;28;20221;-59
2023/08/06 07:02:27;;;;;;;2.30;1.53;;;14.00;99.90;;;;;;5049196;28;20216;-59
2023/08/06 07:04:56;;;;;;;6.30;2.03;;;14.00;99.90;;;;;;5051752;28;20241;-60
2023/08/06 07:07:24;;;;;;;12.63;2.40;;;14.00;99.90;;;;;;5051517;28;20221;-59
2023/08/06 07:09:53;;;;;;;5.47;2.40;;;14.00;99.90;;;;;;5048687;28;20233;-58
2023/08/06 07:12:22;;;;;;;11.77;1.90;;;14.00;99.90;;;;;;5057320;28;20303;-59
2023/08/06 07:14:50;;;;;;;7.53;2.13;;;14.00;99.90;;;;;;5046686;28;20221;-59
2023/08/06 07:17:20;;;;;;;12.40;2.23;;;14.00;99.90;;;;;;5042398;28;20220;-59
2023/08/06 07:19:49;;;;;;;10.83;2.60;;;14.10;99.90;;;;;;5045589;28;20244;-59
2023/08/06 07:22:18;;;;;;;22.70;2.60;;;14.10;99.90;;;;;;5041242;28;20577;-59
2023/08/06 07:24:46;;;;;;;9.77;2.80;;;14.20;99.90;;;;;;5040070;28;20215;-59
2023/08/06 07:27:14;;;;;;;8.80;2.63;;;14.10;99.90;;;;;;5040458;28;20219;-59
2023/08/06 07:29:43;;;;;;;12.37;2.70;;;14.20;99.90;;;;;;5052950;28;20230;-59
2023/08/06 07:32:11;;;;;;;13.90;2.37;;;14.30;99.90;;;;;;5027993;28;20223;-59
2023/08/06 07:34:39;;;;;;;7.57;2.37;;;14.40;99.90;;;;;;5039502;28;20720;-59
2023/08/06 07:37:09;;;;;;;12.10;2.40;;;14.50;99.90;;;;;;5044942;28;21097;-59
2023/08/06 07:39:39;;;;;;;8.53;2.30;;;14.50;99.90;;;;;;5043334;28;20208;-59
2023/08/06 07:42:07;;;;;;;8.03;2.20;;;14.60;99.90;;;;;;5052498;28;20215;-59
2023/08/06 07:44:36;;;;;;;6.57;2.23;;;14.70;99.90;;;;;;5053154;28;20589;-59
2023/08/06 07:47:04;;;;;;;8.60;2.57;;;14.80;99.90;;;;;;5050870;28;20276;-59
2023/08/06 07:49:34;;;;;;;11.10;2.67;;;14.80;99.90;;;;;;5046641;28;20221;-59
2023/08/06 07:52:02;;;;;;;10.87;3.00;;;14.70;99.90;;;;;;5042546;28;20243;-58
2023/08/06 07:54:32;;;;;;;10.07;2.27;;;14.60;99.90;;;;;;5028799;28;20283;-59
2023/08/06 07:57:00;;;;;;;11.20;2.40;;;14.60;99.90;;;;;;5026821;28;20309;-60
2023/08/06 07:59:28;;;;;;;7.53;2.30;;;14.60;99.90;;;;;;5027185;28;20261;-58
2023/08/06 08:01:57;;;;;;;12.87;2.63;;;14.50;99.90;;;;;;5029067;28;20228;-58
2023/08/06 08:04:25;;;;;;;6.40;2.37;;;14.40;99.90;;;;;;5029271;28;20222;-58
2023/08/06 08:06:53;;;;;;;7.93;2.80;;;14.40;99.90;;;;;;5023783;28;20233;-58
2023/08/06 08:09:22;;;;;;;6.33;2.33;;;14.30;99.90;;;;;;5028500;28;20196;-59
2023/08/06 08:11:52;;;;;;;14.77;2.77;;;14.30;99.90;;;;;;5031238;28;20583;-58
2023/08/06 08:14:22;;;;;;;5.97;2.57;;;14.40;99.90;;;;;;5012331;28;20225;-58
2023/08/06 08:16:53;;;;;;;8.83;2.30;;;14.60;99.90;;;;;;5011193;28;20307;-58
2023/08/06 08:19:21;;;;;;;8.67;2.00;;;14.70;99.90;;;;;;5009179;28;20216;-58
2023/08/06 08:21:49;;;;;;;8.90;2.43;;;15.10;99.90;;;;;;5027828;28;20200;-59
2023/08/06 08:24:19;;;;;;;7.77;2.13;;;15.40;99.90;;;;;;5031310;28;20237;-59
2023/08/06 08:26:48;;;;;;;6.37;2.00;;;15.50;99.90;;;;;;5029447;28;20249;-59
2023/08/06 08:29:17;;;;;;;6.90;2.07;;;15.50;99.90;;;;;;5020742;28;20226;-59
2023/08/06 08:31:48;;;;;;;5.40;2.00;;;15.50;99.90;;;;;;5029012;28;20224;-59
2023/08/06 08:34:17;;;;;;;6.90;2.17;;;15.40;99.90;;;;;;5028536;28;20232;-59
2023/08/06 08:36:47;;;;;;;5.07;1.87;;;15.40;99.90;;;;;;5029563;28;20218;-59
2023/08/06 08:39:15;;;;;;;12.37;2.37;;;15.40;99.90;;;;;;5028918;28;20231;-59
2023/08/06 08:41:44;;;;;;;12.80;2.37;;;15.30;99.90;;;;;;5008523;28;20219;-59
2023/08/06 08:44:17;;;;;;;10.60;2.10;;;15.20;99.90;;;;;;5027833;28;20925;-59
2023/08/06 08:46:48;;;;;;;6.47;2.07;;;15.10;99.90;;;;;;5025704;28;20227;-59
2023/08/06 08:49:16;;;;;;;9.77;2.57;;;15.10;99.90;;;;;;5025471;28;20223;-59
2023/08/06 08:51:46;;;;;;;5.87;2.20;;;15.10;99.90;;;;;;5001313;28;20719;-59
2023/08/06 08:54:16;;;;;;;13.77;2.20;;;15.00;99.90;;;;;;5041976;28;20220;-59
2023/08/06 08:56:44;;;;;;;8.43;2.37;;;15.10;99.90;;;;;;5046675;28;20227;-59
2023/08/06 08:59:13;;;;;;;8.83;2.17;;;15.20;99.90;;;;;;5044696;28;20212;-59
2023/08/06 09:01:46;;;;;;;7.97;2.33;;;15.30;99.90;;;;;;5044977;28;20701;-59
2023/08/06 09:04:14;;;;;;;12.13;2.83;;;15.30;99.90;;;;;;5046668;28;20601;-58
2023/08/06 09:06:47;;;;;;;6.27;2.20;;;15.20;99.90;;;;;;5041737;28;20218;-59
2023/08/06 09:09:23;;;;;;;7.53;2.47;;;15.20;99.90;;;;;;5044109;28;20215;-61
2023/08/06 09:11:52;;;;;;;6.57;2.13;;;15.10;99.90;;;;;;5046002;28;20209;-59
2023/08/06 09:14:21;;;;;;;10.30;2.47;;;15.10;99.90;;;;;;5032356;28;20218;-59
2023/08/06 09:16:51;;;;;;;12.33;2.50;;;15.10;99.90;;;;;;5040967;28;20825;-59
2023/08/06 09:19:20;;;;;;;6.27;2.10;;;15.10;99.90;;;;;;5044348;28;20588;-59
2023/08/06 09:21:52;;;;;;;7.60;2.23;;;14.90;99.90;;;;;;5047921;28;20679;-59
2023/08/06 09:24:21;;;;;;;11.53;2.60;;;14.90;99.90;;;;;;5041979;28;20233;-59
2023/08/06 09:26:50;;;;;;;9.20;2.70;;;14.90;99.90;;;;;;5044307;28;20218;-59
2023/08/06 09:29:18;;;;;;;6.70;2.30;;;14.90;99.90;;;;;;5049257;28;20233;-59
2023/08/06 09:31:48;;;;;;;7.07;2.47;;;15.00;99.90;;;;;;5049816;28;20237;-60
2023/08/06 09:34:19;;;;;;;9.93;2.20;;;15.00;99.90;;;;;;5046696;28;20225;-59
2023/08/06 09:36:50;;;;;;;11.30;2.33;;;15.10;99.90;;;;;;5046963;28;20216;-59
2023/08/06 09:39:19;;;;;;;7.43;2.13;;;15.10;99.90;;;;;;5050177;28;20211;-59
2023/08/06 09:41:49;;;;;;;14.57;2.63;;;15.30;99.90;;;;;;5045337;28;20254;-59
2023/08/06 09:44:19;;;;;;;10.47;2.03;;;15.50;99.90;;;;;;5038457;28;20291;-59
2023/08/06 09:46:52;;;;;;;5.43;1.87;;;15.80;99.90;;;;;;5025646;28;20223;-59
2023/08/06 09:49:29;;;;;;;6.77;1.80;;;16.10;99.90;;;;;;5036004;28;21013;-60
2023/08/06 09:52:03;;;;;;;6.27;2.23;;;16.10;99.90;;;;;;5046850;28;20293;-59
2023/08/06 09:54:35;;;;;;;6.50;2.00;;;16.00;99.90;;;;;;5053798;28;20641;-60
2023/08/06 09:57:05;;;;;;;7.47;2.30;;;15.90;99.90;;;;;;5043621;28;20233;-60
2023/08/06 09:59:34;;;;;;;5.57;1.87;;;16.40;99.90;;;;;;5049591;28;20212;-60
2023/08/06 10:02:09;;;;;;;5.77;1.90;;;17.10;99.90;;;;;;5049651;28;20225;-60
2023/08/06 10:04:38;;;;;;;5.53;1.80;;;17.20;99.90;;;;;;5051311;28;20219;-60
2023/08/06 10:07:09;;;;;;;4.43;2.00;;;16.90;99.90;;;;;;5048455;28;20698;-60
2023/08/06 10:09:38;;;;;;;5.60;2.30;;;16.60;99.90;;;;;;5052276;28;20705;-62
2023/08/06 10:12:07;;;;;;;3.80;2.13;;;16.20;99.90;;;;;;5054558;28;20738;-60
2023/08/06 10:14:38;;;;;;;5.83;2.30;;;15.90;99.90;;;;;;5051881;28;20219;-60
2023/08/06 10:17:07;;;;;;;10.93;2.40;;;15.70;99.90;;;;;;5054233;28;20253;-60
2023/08/06 10:19:35;;;;;;;5.90;2.37;;;15.70;99.90;;;;;;5038017;28;20578;-60
2023/08/06 10:22:13;;;;;;;9.17;2.17;;;15.70;99.90;;;;;;5041570;28;20211;-60
2023/08/06 10:24:49;;;;;;;6.80;2.40;;;15.70;99.90;;;;;;5055363;28;20199;-60
2023/08/06 10:27:29;;;;;;;6.57;2.13;;;15.60;99.90;;;;;;5036150;28;20230;-60
2023/08/06 10:30:24;;;;;;;4.57;2.37;;;15.60;99.90;;;;;;5051534;28;20713;-60
2023/08/06 10:32:54;;;;;;;6.40;2.47;;;15.70;99.90;;;;;;5055378;28;20243;-61
2023/08/06 10:35:30;;;;;;;6.70;2.40;;;15.90;99.90;;;;;;5046916;28;20227;-59
2023/08/06 10:38:04;;;;;;;7.57;2.23;;;16.00;99.90;;;;;;5052273;28;20234;-59
2023/08/06 10:40:33;;;;;;;7.90;2.20;;;16.20;99.90;;;;;;5042567;28;20316;-59
2023/08/06 10:43:02;;;;;;;8.87;2.23;;;16.30;99.90;;;;;;5054518;28;20195;-59
2023/08/06 10:45:30;;;;;;;7.23;2.50;;;16.30;99.90;;;;;;5055044;28;20286;-59
2023/08/06 10:47:58;;;;;;;6.60;2.37;;;16.20;93.30;;;;;;5051841;28;20232;-59
2023/08/06 10:50:27;;;;;;;5.03;1.90;;;16.10;90.90;;;;;;5053332;28;20606;-59
2023/08/06 10:52:56;;;;;;;4.03;2.20;;;16.20;98.90;;;;;;5051130;28;20898;-58
2023/08/06 10:55:27;;;;;;;6.57;2.00;;;16.40;91.80;;;;;;5052507;28;20222;-59
2023/08/06 10:57:56;;;;;;;5.60;2.00;;;16.50;82.10;;;;;;5049224;28;20342;-59
2023/08/06 11:00:25;;;;;;;7.03;2.23;;;16.60;84.00;;;;;;5053156;28;20197;-59
2023/08/06 11:02:54;;;;;;;5.70;1.90;;;16.70;73.20;;;;;;5052968;28;20220;-59
2023/08/06 11:05:24;;;;;;;5.80;1.90;;;16.80;90.30;;;;;;5046871;28;20220;-59
2023/08/06 11:07:52;;;;;;;5.33;1.80;;;16.80;80.40;;;;;;5051043;28;20251;-60
2023/08/06 11:10:20;;;;;;;4.90;2.10;;;16.70;78.80;;;;;;5050633;28;20221;-59
2023/08/06 11:12:50;;;;;;;6.53;2.03;;;16.40;92.20;;;;;;5052135;28;20200;-60
2023/08/06 11:15:21;;;;;;;5.00;2.13;;;16.10;99.70;;;;;;5044094;28;20263;-59
2023/08/06 11:17:49;;;;;;;10.87;2.60;;;15.90;99.90;;;;;;5046483;28;20232;-59
2023/08/06 11:20:17;;;;;;;6.23;1.70;;;15.80;99.90;;;;;;5047843;28;20305;-59
2023/08/06 11:22:45;;;;;;;9.33;2.43;;;15.80;99.90;;;;;;5048000;28;20309;-60
2023/08/06 11:25:14;;;;;;;9.03;2.17;;;15.70;99.90;;;;;;5038694;28;20219;-60
2023/08/06 11:27:42;;;;;;;4.40;1.80;;;15.50;99.90;;;;;;5043560;28;20226;-60
2023/08/06 11:30:13;;;;;;;5.13;2.10;;;15.50;99.90;;;;;;5045754;28;20233;-60
2023/08/06 11:32:49;;;;;;;11.27;2.23;;;15.40;99.90;;;;;;5047401;28;20597;-60
2023/08/06 11:35:17;;;;;;;10.60;2.03;;;15.50;99.90;;;;;;5045666;28;20223;-60
2023/08/06 11:37:46;;;;;;;5.10;2.00;;;15.50;99.90;;;;;;5046689;28;20221;-60
2023/08/06 11:40:19;;;;;;;3.30;1.60;;;15.60;99.90;;;;;;5046867;28;20238;-59
2023/08/06 11:42:48;;;;;;;6.00;2.10;;;15.50;99.90;;;;;;5055695;28;20194;-60
2023/08/06 11:45:22;;;;;;;8.97;2.00;;;15.50;99.90;;;;;;5051977;28;20306;-60
2023/08/06 11:47:53;;;;;;;5.47;2.00;;;15.60;99.90;;;;;;5046115;28;20224;-60
2023/08/06 11:50:25;;;;;;;4.43;1.97;;;15.70;99.90;;;;;;5050378;28;20857;-59
2023/08/06 11:52:59;;;;;;;3.93;2.13;;;15.70;99.90;;;;;;5037032;28;20232;-59
2023/08/06 11:55:29;;;;;;;8.23;2.30;;;15.60;99.90;;;;;;5028249;28;20228;-59
2023/08/06 11:57:58;;;;;;;7.27;2.10;;;15.70;99.90;;;;;;5037651;28;20884;-59
2023/08/06 12:00:28;;;;;;;7.20;2.10;;;15.80;99.90;;;;;;5048558;28;20199;-59
2023/08/06 12:02:57;;;;;;;4.87;1.90;;;15.80;99.90;;;;;;5039603;28;20289;-59
2023/08/06 12:05:32;;;;;;;7.47;2.10;;;15.80;99.90;;;;;;5029038;28;20235;-59
2023/08/06 12:08:03;;;;;;;7.77;2.23;;;16.00;99.90;;;;;;5036976;28;20313;-59
2023/08/06 12:10:32;;;;;;;7.63;1.97;;;16.20;99.90;;;;;;5043551;28;20229;-59
2023/08/06 12:13:02;;;;;;;11.90;2.20;;;16.50;99.90;;;;;;5043621;28;20248;-59
2023/08/06 12:15:32;;;;;;;6.97;2.00;;;16.50;99.90;;;;;;5040807;28;20212;-59
2023/08/06 12:18:01;;;;;;;8.67;2.57;;;16.30;99.90;;;;;;5041371;28;20251;-60
2023/08/06 12:20:29;;;;;;;5.07;2.17;;;16.10;99.90;;;;;;5042177;28;20220;-61
2023/08/06 12:22:57;;;;;;;4.90;2.10;;;15.70;99.90;;;;;;5047235;28;20222;-60
2023/08/06 12:25:26;;;;;;;6.27;2.23;;;15.60;99.90;;;;;;5028787;28;20236;-60
2023/08/06 12:27:54;;;;;;;5.90;2.03;;;15.50;99.90;;;;;;5041939;28;20205;-60
2023/08/06 12:30:22;;;;;;;6.70;2.37;;;15.50;99.90;;;;;;5040684;28;20201;-59
2023/08/06 12:32:52;;;;;;;9.97;2.70;;;15.60;99.90;;;;;;5045905;28;20228;-60
2023/08/06 12:35:21;;;;;;;6.70;2.10;;;15.80;99.90;;;;;;5036787;28;20225;-60
2023/08/06 12:37:51;;;;;;;7.37;2.00;;;16.00;99.90;;;;;;5043979;28;20273;-60
2023/08/06 12:40:19;;;;;;;6.77;2.37;;;16.00;99.90;;;;;;5028699;28;20221;-60
2023/08/06 12:43:04;;;;;;;9.23;2.13;;;16.10;99.90;;;;;;5024054;28;20257;-60
2023/08/06 12:45:32;;;;;;;5.27;2.07;;;16.20;99.90;;;;;;5035962;28;21466;-60
2023/08/06 12:48:03;;;;;;;6.67;1.97;;;16.10;99.90;;;;;;5042731;28;20701;-60
2023/08/06 12:50:33;;;;;;;6.17;2.20;;;16.00;99.90;;;;;;5035194;28;20278;-60
2023/08/06 12:53:02;;;;;;;8.80;2.00;;;16.00;99.90;;;;;;5042132;28;20685;-61